createdAt,value
2023-02-14T00:01:26.659Z,103033.41
2023-02-14T00:03:54.913Z,103037.34
2023-02-14T00:06:22.844Z,103035.75
2023-02-14T00:08:52.447Z,103034.84
2023-02-14T00:11:20.714Z,103029.31
2023-02-14T00:14:07.511Z,103037.38
2023-02-14T00:16:36.543Z,103031.22
2023-02-14T00:19:05.471Z,103027.91
2023-02-14T00:21:35.978Z,103022.97
2023-02-14T00:24:07.907Z,103024.06
2023-02-14T00:26:38.723Z,103019.56
2023-02-14T00:29:07.455Z,103007.59
2023-02-14T00:31:35.526Z,103011.53
2023-02-14T00:34:04.098Z,103014.22
2023-02-14T00:36:33.632Z,103009.59
2023-02-14T00:39:06.862Z,103007.34
2023-02-14T00:41:35.172Z,102996.56
2023-02-14T00:44:02.769Z,103008.53
2023-02-14T00:46:30.780Z,103004.34
2023-02-14T00:48:59.069Z,103005.06
2023-02-14T00:51:27.639Z,103001.91
2023-02-14T00:53:55.454Z,102998.66
2023-02-14T00:56:23.719Z,102994.03
2023-02-14T00:58:51.932Z,102992.66
2023-02-14T01:01:20.052Z,102988.78
2023-02-14T01:03:49.874Z,102992.66
2023-02-14T01:06:17.881Z,102991.03
2023-02-14T01:08:46.490Z,102979.66
2023-02-14T01:11:24.363Z,102984.91
2023-02-14T01:13:52.616Z,102980.41
2023-02-14T01:16:20.808Z,102976.50
2023-02-14T01:18:48.136Z,102968.00
2023-02-14T01:21:28.066Z,102975.59
2023-02-14T01:23:59.926Z,102976.34
2023-02-14T01:26:27.586Z,102976.22
2023-02-14T01:29:01.184Z,102967.41
2023-02-14T01:31:30.414Z,102965.00
2023-02-14T01:33:58.487Z,102970.53
2023-02-14T01:36:52.304Z,102956.00
2023-02-14T01:39:20.638Z,102964.25
2023-02-14T01:41:49.124Z,102962.75
2023-02-14T01:44:16.202Z,102954.81
2023-02-14T01:46:45.141Z,102945.97
2023-02-14T01:49:11.838Z,102936.09
2023-02-14T01:51:40.570Z,102941.19
2023-02-14T01:54:08.476Z,102928.03
2023-02-14T01:56:39.215Z,102925.03
2023-02-14T01:59:07.735Z,102921.28
2023-02-14T02:01:35.581Z,102920.53
2023-02-14T02:04:15.238Z,102915.13
2023-02-14T02:06:48.421Z,102916.34
2023-02-14T02:09:34.207Z,102915.00
2023-02-14T02:12:02.424Z,102917.06
2023-02-14T02:14:31.800Z,102912.88
2023-02-14T02:17:21.071Z,102911.25
2023-02-14T02:20:13.002Z,102908.41
2023-02-14T02:23:13.910Z,102897.22
2023-02-14T02:25:53.071Z,102896.19
2023-02-14T02:28:45.474Z,102892.72
2023-02-14T02:31:28.135Z,102890.06
2023-02-14T02:34:04.624Z,102885.56
2023-02-14T02:37:18.585Z,102884.22
2023-02-14T02:40:10.292Z,102879.91
2023-02-14T02:42:53.706Z,102890.34
2023-02-14T02:45:34.520Z,102888.56
2023-02-14T02:48:11.355Z,102887.19
2023-02-14T02:51:04.735Z,102885.72
2023-02-14T02:54:25.761Z,102882.91
2023-02-14T02:56:58.633Z,102879.59
2023-02-14T02:59:28.884Z,102882.28
2023-02-14T03:02:02.505Z,102884.81
2023-02-14T03:04:47.533Z,102880.19
2023-02-14T03:07:34.022Z,102880.03
2023-02-14T03:10:14.406Z,102871.66
2023-02-14T03:12:59.390Z,102869.84
2023-02-14T03:15:37.579Z,102885.56
2023-02-14T03:19:00.677Z,102877.50
2023-02-14T03:21:43.047Z,102885.56
2023-02-14T03:24:30.742Z,102881.25
2023-02-14T03:27:08.612Z,102893.34
2023-02-14T03:29:47.793Z,102901.13
2023-02-14T03:32:20.207Z,102896.34
2023-02-14T03:35:18.180Z,102899.94
2023-02-14T03:38:33.068Z,102903.38
2023-02-14T03:41:02.715Z,102898.59
2023-02-14T03:43:35.300Z,102910.09
2023-02-14T03:46:14.791Z,102913.41
2023-02-14T03:48:41.879Z,102916.66
2023-02-14T03:51:11.484Z,102914.56
2023-02-14T03:53:40.247Z,102909.50
2023-02-14T03:56:23.466Z,102917.88
2023-02-14T03:58:52.169Z,102909.63
2023-02-14T04:01:24.872Z,102913.66
2023-02-14T04:03:53.233Z,102917.09
2023-02-14T04:06:22.931Z,102914.25
2023-02-14T04:08:51.362Z,102916.97
2023-02-14T04:11:19.549Z,102913.81
2023-02-14T04:13:47.617Z,102909.19
2023-02-14T04:16:15.704Z,102898.41
2023-02-14T04:19:02.225Z,102904.66
2023-02-14T04:21:30.494Z,102904.38
2023-02-14T04:23:58.596Z,102902.25
2023-02-14T04:26:27.396Z,102899.13
2023-02-14T04:28:55.136Z,102906.13
2023-02-14T04:31:22.939Z,102900.72
2023-02-14T04:33:51.437Z,102906.13
2023-02-14T04:36:19.064Z,102903.13
2023-02-14T04:38:47.341Z,102898.06
2023-02-14T04:41:15.344Z,102913.88
2023-02-14T04:43:43.135Z,102919.09
2023-02-14T04:46:11.412Z,102912.53
2023-02-14T04:48:39.612Z,102908.84
2023-02-14T04:51:07.217Z,102921.53
2023-02-14T04:53:40.274Z,102912.09
2023-02-14T04:56:08.464Z,102911.66
2023-02-14T04:58:36.192Z,102905.78
2023-02-14T05:01:04.618Z,102900.44
2023-02-14T05:03:32.969Z,102901.31
2023-02-14T05:06:01.266Z,102892.91
2023-02-14T05:08:28.811Z,102900.25
2023-02-14T05:10:57.562Z,102895.72
2023-02-14T05:13:25.844Z,102897.38
2023-02-14T05:15:53.985Z,102900.66
2023-02-14T05:18:21.969Z,102889.59
2023-02-14T05:20:52.403Z,102889.75
2023-02-14T05:23:20.546Z,102895.00
2023-02-14T05:25:51.145Z,102901.25
2023-02-14T05:28:20.599Z,102887.34
2023-02-14T05:30:48.308Z,102890.13
2023-02-14T05:33:16.623Z,102912.75
2023-02-14T05:35:45.284Z,102902.84
2023-02-14T05:38:13.938Z,102905.38
2023-02-14T05:40:42.215Z,102904.94
2023-02-14T05:43:09.949Z,102909.00
2023-02-14T05:45:38.432Z,102901.13
2023-02-14T05:48:06.599Z,102901.88
2023-02-14T05:50:34.122Z,102907.13
2023-02-14T05:53:02.163Z,102914.13
2023-02-14T05:55:30.389Z,102906.38
2023-02-14T05:57:58.882Z,102911.28
2023-02-14T06:00:27.494Z,102912.03
2023-02-14T06:02:55.627Z,102911.06
2023-02-14T06:05:23.666Z,102915.47
2023-02-14T06:07:50.960Z,102923.34
2023-02-14T06:10:20.309Z,102926.25
2023-02-14T06:12:49.097Z,102927.66
2023-02-14T06:15:17.765Z,102928.91
2023-02-14T06:17:46.339Z,102927.34
2023-02-14T06:20:14.600Z,102932.13
2023-02-14T06:22:43.215Z,102936.59
2023-02-14T06:25:11.652Z,102932.44
2023-02-14T06:27:39.688Z,102935.59
2023-02-14T06:30:11.675Z,102935.19
2023-02-14T06:32:40.071Z,102936.25
2023-02-14T06:35:07.934Z,102937.66
2023-02-14T06:37:35.688Z,102941.97
2023-02-14T06:40:04.468Z,102935.25
2023-02-14T06:42:32.162Z,102924.41
2023-02-14T06:45:01.259Z,102927.34
2023-02-14T06:47:29.940Z,102938.59
2023-02-14T06:50:00.081Z,102937.34
2023-02-14T06:52:27.925Z,102934.88
2023-02-14T06:54:56.471Z,102944.47
2023-02-14T06:57:24.506Z,102947.66
2023-02-14T06:59:52.539Z,102936.00
2023-02-14T07:02:24.689Z,102940.25
2023-02-14T07:04:53.308Z,102949.53
2023-02-14T07:07:21.349Z,102945.94
2023-02-14T07:09:51.067Z,102945.53
2023-02-14T07:12:19.370Z,102945.84
2023-02-14T07:14:47.524Z,102953.13
2023-02-14T07:17:16.032Z,102952.25
2023-02-14T07:19:44.796Z,102940.00
2023-02-14T07:22:13.150Z,102935.47
2023-02-14T07:24:40.908Z,102943.44
2023-02-14T07:27:08.977Z,102945.25
2023-02-14T07:29:37.859Z,102948.53
2023-02-14T07:32:06.952Z,102942.91
2023-02-14T07:34:35.109Z,102940.22
2023-02-14T07:37:02.383Z,102935.47
2023-02-14T07:39:31.309Z,102933.97
2023-02-14T07:41:58.904Z,102934.56
2023-02-14T07:44:27.024Z,102926.53
2023-02-14T07:46:54.912Z,102927.28
2023-02-14T07:49:24.296Z,102929.53
2023-02-14T07:51:52.360Z,102922.66
2023-02-14T07:54:21.237Z,102924.16
2023-02-14T07:56:49.660Z,102926.84
2023-02-14T07:59:17.489Z,102922.78
2023-02-14T08:01:44.783Z,102929.06
2023-02-14T08:04:14.029Z,102922.16
2023-02-14T08:06:42.432Z,102911.22
2023-02-14T08:09:24.789Z,102917.47
2023-02-14T08:12:14.694Z,102927.16
2023-02-14T08:14:42.239Z,102924.41
2023-02-14T08:17:13.951Z,102926.56
2023-02-14T08:19:42.244Z,102930.25
2023-02-14T08:22:10.211Z,102925.88
2023-02-14T08:24:38.974Z,102920.13
2023-02-14T08:27:07.441Z,102927.00
2023-02-14T08:29:35.676Z,102928.81
2023-02-14T08:32:03.985Z,102927.56
2023-02-14T08:34:32.205Z,102932.31
2023-02-14T08:37:01.008Z,102936.16
2023-02-14T08:39:28.671Z,102930.63
2023-02-14T08:41:57.063Z,102935.25
2023-02-14T08:44:25.131Z,102927.13
2023-02-14T08:46:53.750Z,102928.56
2023-02-14T08:49:21.991Z,102925.19
2023-02-14T08:51:50.568Z,102927.50
2023-02-14T08:54:18.710Z,102926.69
2023-02-14T08:56:46.749Z,102926.09
2023-02-14T08:59:14.953Z,102930.06
2023-02-14T09:01:43.296Z,102933.06
2023-02-14T09:04:11.425Z,102924.03
2023-02-14T09:06:40.086Z,102923.56
2023-02-14T09:09:07.664Z,102919.78
2023-02-14T09:11:35.581Z,102924.38
2023-02-14T09:14:04.957Z,102930.03
2023-02-14T09:16:32.524Z,102925.06
2023-02-14T09:19:00.359Z,102922.91
2023-02-14T09:21:28.068Z,102914.72
2023-02-14T09:23:55.933Z,102910.03
2023-02-14T09:26:23.919Z,102903.09
2023-02-14T09:28:52.199Z,102909.19
2023-02-14T09:31:22.281Z,102902.66
2023-02-14T09:33:50.459Z,102896.50
2023-02-14T09:36:35.808Z,102899.50
2023-02-14T09:39:07.183Z,102894.34
2023-02-14T09:42:07.313Z,102889.00
2023-02-14T09:44:41.077Z,102904.91
2023-02-14T09:47:34.932Z,102897.91
2023-02-14T09:50:06.131Z,102886.13
2023-02-14T09:52:33.363Z,102887.22
2023-02-14T09:55:01.516Z,102895.94
2023-02-14T09:57:53.361Z,102893.31
2023-02-14T10:00:43.687Z,102896.34
2023-02-14T10:03:18.213Z,102885.16
2023-02-14T10:06:12.662Z,102876.78
2023-02-14T10:08:49.563Z,102875.13
2023-02-14T10:11:20.519Z,102866.13
2023-02-14T10:14:10.554Z,102864.03
2023-02-14T10:16:53.756Z,102863.34
2023-02-14T10:19:39.213Z,102851.69
2023-02-14T10:22:17.553Z,102853.59
2023-02-14T10:25:24.352Z,102848.69
2023-02-14T10:27:52.851Z,102848.94
2023-02-14T10:30:22.253Z,102847.75
2023-02-14T10:33:06.441Z,102842.13
2023-02-14T10:35:45.481Z,102844.69
2023-02-14T10:38:50.212Z,102835.69
2023-02-14T10:41:53.347Z,102829.91
2023-02-14T10:44:42.092Z,102819.00
2023-02-14T10:47:47.028Z,102819.00
2023-02-14T10:50:35.664Z,102825.09
2023-02-14T10:53:17.159Z,102818.13
2023-02-14T10:56:06.520Z,102815.31
2023-02-14T10:58:37.773Z,102800.34
2023-02-14T11:01:16.305Z,102795.63
2023-02-14T11:03:56.165Z,102799.91
2023-02-14T11:06:24.297Z,102793.94
2023-02-14T11:08:51.982Z,102785.13
2023-02-14T11:11:31.295Z,102772.28
2023-02-14T11:13:59.044Z,102776.81
2023-02-14T11:16:31.427Z,102760.31
2023-02-14T11:19:25.990Z,102753.16
2023-02-14T11:21:54.716Z,102752.28
2023-02-14T11:24:31.891Z,102763.28
2023-02-14T11:27:07.450Z,102741.91
2023-02-14T11:29:45.053Z,102735.75
2023-02-14T11:32:16.565Z,102741.72
2023-02-14T11:34:59.808Z,102730.72
2023-02-14T11:37:34.085Z,102730.38
2023-02-14T11:40:01.486Z,102725.50
2023-02-14T11:42:34.181Z,102716.94
2023-02-14T11:45:02.112Z,102711.03
2023-02-14T11:47:30.746Z,102714.69
2023-02-14T11:50:02.270Z,102700.84
2023-02-14T11:52:29.964Z,102697.34
2023-02-14T11:54:57.660Z,102696.56
2023-02-14T11:57:33.873Z,102702.38
2023-02-14T12:00:01.835Z,102697.53
2023-02-14T12:02:33.659Z,102676.75
2023-02-14T12:05:06.025Z,102681.88
2023-02-14T12:07:36.580Z,102673.34
2023-02-14T12:10:18.900Z,102664.84
2023-02-14T12:12:51.782Z,102658.25
2023-02-14T12:15:23.520Z,102667.72
2023-02-14T12:17:53.278Z,102658.28
2023-02-14T12:20:27.133Z,102660.53
2023-02-14T12:23:13.761Z,102649.56
2023-02-14T12:25:44.545Z,102641.00
2023-02-14T12:28:14.199Z,102641.16
2023-02-14T12:30:41.915Z,102643.28
2023-02-14T12:33:35.378Z,102637.69
2023-02-14T12:36:44.194Z,102629.91
2023-02-14T12:39:29.369Z,102630.38
2023-02-14T12:42:02.895Z,102619.69
2023-02-14T12:44:42.587Z,102606.03
2023-02-14T12:47:14.211Z,102616.50
2023-02-14T12:49:49.739Z,102611.81
2023-02-14T12:52:33.353Z,102601.56
2023-02-14T12:55:24.141Z,102591.78
2023-02-14T12:58:12.729Z,102586.19
2023-02-14T13:00:44.426Z,102587.13
2023-02-14T13:03:26.677Z,102574.03
2023-02-14T13:06:16.023Z,102576.09
2023-02-14T13:08:49.289Z,102565.97
2023-02-14T13:11:22.408Z,102567.66
2023-02-14T13:14:04.489Z,102566.72
2023-02-14T13:16:39.691Z,102560.94
2023-02-14T13:19:22.035Z,102557.53
2023-02-14T13:21:49.919Z,102547.81
2023-02-14T13:24:28.704Z,102537.75
2023-02-14T13:26:57.469Z,102545.81
2023-02-14T13:29:25.361Z,102538.97
2023-02-14T13:31:58.839Z,102538.41
2023-02-14T13:34:33.277Z,102541.44
2023-02-14T13:37:00.811Z,102531.69
2023-02-14T13:39:38.476Z,102537.47
2023-02-14T13:42:07.166Z,102532.06
2023-02-14T13:44:48.978Z,102529.94
2023-02-14T13:47:26.081Z,102529.59
2023-02-14T13:50:00.796Z,102522.50
2023-02-14T13:52:44.021Z,102520.22
2023-02-14T13:55:46.228Z,102524.06
2023-02-14T13:58:21.834Z,102512.50
2023-02-14T14:00:49.649Z,102512.50
2023-02-14T14:03:28.934Z,102515.88
2023-02-14T14:06:09.884Z,102506.41
2023-02-14T14:08:42.650Z,102512.56
2023-02-14T14:11:22.904Z,102497.59
2023-02-14T14:13:59.746Z,102502.16
2023-02-14T14:16:33.641Z,102492.78
2023-02-14T14:19:10.192Z,102493.97
2023-02-14T14:21:37.742Z,102495.25
2023-02-14T14:24:26.936Z,102492.38
2023-02-14T14:27:08.288Z,102486.28
2023-02-14T14:29:45.296Z,102489.75
2023-02-14T14:32:18.354Z,102480.53
2023-02-14T14:34:52.554Z,102488.88
2023-02-14T14:37:21.932Z,102479.38
2023-02-14T14:39:53.763Z,102492.31
2023-02-14T14:42:21.469Z,102491.66
2023-02-14T14:45:00.032Z,102481.44
2023-02-14T14:47:30.778Z,102477.94
2023-02-14T14:50:04.717Z,102478.44
2023-02-14T14:52:39.450Z,102479.91
2023-02-14T14:55:08.493Z,102475.25
2023-02-14T14:57:39.718Z,102469.63
2023-02-14T15:00:18.648Z,102472.91
2023-02-14T15:03:00.611Z,102469.63
2023-02-14T15:05:55.907Z,102471.66
2023-02-14T15:08:25.588Z,102475.53
2023-02-14T15:10:55.691Z,102475.66
2023-02-14T15:13:50.760Z,102468.56
2023-02-14T15:16:21.558Z,102458.09
2023-02-14T15:18:49.548Z,102460.81
2023-02-14T15:21:16.475Z,102465.41
2023-02-14T15:23:44.206Z,102463.38
2023-02-14T15:26:17.103Z,102463.88
2023-02-14T15:28:44.655Z,102467.97
2023-02-14T15:31:11.859Z,102460.34
2023-02-14T15:33:39.631Z,102467.03
2023-02-14T15:36:08.677Z,102465.25
2023-02-14T15:38:36.684Z,102462.22
2023-02-14T15:41:04.676Z,102464.66
2023-02-14T15:43:33.015Z,102465.38
2023-02-14T15:46:21.310Z,102462.47
2023-02-14T15:48:49.335Z,102459.16
2023-02-14T15:51:26.307Z,102457.00
2023-02-14T15:53:58.865Z,102448.81
2023-02-14T15:56:44.828Z,102443.91
2023-02-14T15:59:20.991Z,102451.66
2023-02-14T16:02:05.960Z,102458.69
2023-02-14T16:04:36.148Z,102458.91
2023-02-14T16:07:06.881Z,102458.41
2023-02-14T16:09:35.464Z,102451.63
2023-02-14T16:12:31.754Z,102458.09
2023-02-14T16:15:17.514Z,102459.38
2023-02-14T16:17:45.931Z,102454.03
2023-02-14T16:20:43.720Z,102461.78
2023-02-14T16:23:19.838Z,102461.53
2023-02-14T16:25:47.024Z,102463.88
2023-02-14T16:28:14.953Z,102464.38
2023-02-14T16:30:42.688Z,102466.81
2023-02-14T16:33:22.202Z,102465.88
2023-02-14T16:35:49.335Z,102467.94
2023-02-14T16:38:17.722Z,102477.56
2023-02-14T16:40:46.819Z,102475.81
2023-02-14T16:43:18.612Z,102476.75
2023-02-14T16:45:45.699Z,102476.97
2023-02-14T16:48:15.794Z,102472.88
2023-02-14T16:50:42.549Z,102476.53
2023-02-14T16:53:22.677Z,102480.91
2023-02-14T16:55:50.801Z,102466.22
2023-02-14T16:58:19.562Z,102472.97
2023-02-14T17:00:50.503Z,102477.53
2023-02-14T17:03:18.184Z,102483.19
2023-02-14T17:05:45.647Z,102486.25
2023-02-14T17:08:13.216Z,102483.03
2023-02-14T17:10:40.330Z,102482.22
2023-02-14T17:13:07.465Z,102485.13
2023-02-14T17:15:35.480Z,102477.84
2023-02-14T17:18:09.044Z,102477.69
2023-02-14T17:20:37.115Z,102485.34
2023-02-14T17:23:04.974Z,102487.19
2023-02-14T17:25:32.119Z,102485.03
2023-02-14T17:28:03.142Z,102483.53
2023-02-14T17:30:31.031Z,102493.47
2023-02-14T17:32:58.649Z,102496.94
2023-02-14T17:35:26.731Z,102489.91
2023-02-14T17:37:54.511Z,102490.72
2023-02-14T17:40:22.931Z,102489.75
2023-02-14T17:42:51.209Z,102492.78
2023-02-14T17:45:18.992Z,102491.56
2023-02-14T17:47:46.553Z,102492.28
2023-02-14T17:50:14.768Z,102498.50
2023-02-14T17:52:42.849Z,102494.81
2023-02-14T17:55:16.466Z,102501.91
2023-02-14T17:57:43.948Z,102500.59
2023-02-14T18:00:16.443Z,102495.00
2023-02-14T18:02:45.931Z,102496.22
2023-02-14T18:05:13.390Z,102497.81
2023-02-14T18:07:41.041Z,102501.00
2023-02-14T18:10:09.911Z,102498.28
2023-02-14T18:12:38.002Z,102499.06
2023-02-14T18:15:06.833Z,102504.16
2023-02-14T18:17:34.495Z,102502.88
2023-02-14T18:20:03.236Z,102499.94
2023-02-14T18:22:30.569Z,102495.88
2023-02-14T18:24:58.875Z,102508.69
2023-02-14T18:27:26.649Z,102505.91
2023-02-14T18:29:54.394Z,102505.09
2023-02-14T18:32:22.368Z,102506.97
2023-02-14T18:34:51.156Z,102512.72
2023-02-14T18:37:19.242Z,102512.97
2023-02-14T18:39:47.456Z,102511.09
2023-02-14T18:42:15.459Z,102510.00
2023-02-14T18:44:43.058Z,102506.28
2023-02-14T18:47:11.083Z,102512.78
2023-02-14T18:49:39.417Z,102516.47
2023-02-14T18:52:07.425Z,102512.03
2023-02-14T18:54:35.351Z,102517.06
2023-02-14T18:57:07.064Z,102520.22
2023-02-14T18:59:35.240Z,102516.50
2023-02-14T19:02:03.328Z,102510.22
2023-02-14T19:04:30.976Z,102511.81
2023-02-14T19:06:58.654Z,102515.25
2023-02-14T19:09:27.534Z,102512.59
2023-02-14T19:12:00.035Z,102509.03
2023-02-14T19:14:27.944Z,102507.75
2023-02-14T19:16:55.552Z,102508.13
2023-02-14T19:19:24.180Z,102519.31
2023-02-14T19:21:52.110Z,102522.66
2023-02-14T19:24:19.974Z,102517.28
2023-02-14T19:26:48.326Z,102523.34
2023-02-14T19:29:17.239Z,102526.38
2023-02-14T19:31:45.867Z,102521.25
2023-02-14T19:34:20.216Z,102522.03
2023-02-14T19:36:48.027Z,102522.72
2023-02-14T19:39:15.710Z,102528.91
2023-02-14T19:41:44.604Z,102519.41
2023-02-14T19:44:13.918Z,102527.47
2023-02-14T19:46:42.516Z,102524.50
2023-02-14T19:49:12.049Z,102525.97
2023-02-14T19:51:40.032Z,102517.38
2023-02-14T19:54:09.723Z,102520.13
2023-02-14T19:56:37.948Z,102530.22
2023-02-14T19:59:14.428Z,102523.09
2023-02-14T20:01:48.520Z,102522.28
2023-02-14T20:04:17.796Z,102530.97
2023-02-14T20:06:47.092Z,102533.13
2023-02-14T20:09:15.628Z,102532.91
2023-02-14T20:11:51.570Z,102528.81
2023-02-14T20:14:27.219Z,102533.13
2023-02-14T20:16:55.793Z,102539.06
2023-02-14T20:19:29.520Z,102533.69
2023-02-14T20:21:58.184Z,102537.84
2023-02-14T20:24:27.885Z,102538.28
2023-02-14T20:26:55.525Z,102541.84
2023-02-14T20:29:23.966Z,102532.16
2023-02-14T20:31:53.489Z,102534.44
2023-02-14T20:34:21.572Z,102543.84
2023-02-14T20:36:56.179Z,102535.47
2023-02-14T20:39:27.018Z,102540.19
2023-02-14T20:41:54.668Z,102547.56
2023-02-14T20:44:22.615Z,102543.31
2023-02-14T20:46:51.694Z,102544.19
2023-02-14T20:49:20.894Z,102544.00
2023-02-14T20:51:51.677Z,102542.69
2023-02-14T20:54:19.557Z,102536.44
2023-02-14T20:56:47.577Z,102538.19
2023-02-14T20:59:16.206Z,102535.44
2023-02-14T21:01:44.480Z,102535.84
2023-02-14T21:04:14.094Z,102535.97
2023-02-14T21:06:42.162Z,102539.06
2023-02-14T21:09:09.745Z,102540.09
2023-02-14T21:11:39.026Z,102535.41
2023-02-14T21:14:08.080Z,102529.06
2023-02-14T21:16:36.493Z,102534.16
2023-02-14T21:19:05.994Z,102536.53
2023-02-14T21:21:36.463Z,102524.34
2023-02-14T21:24:24.434Z,102523.78
2023-02-14T21:26:52.905Z,102521.78
2023-02-14T21:29:21.082Z,102522.78
2023-02-14T21:31:50.776Z,102517.91
2023-02-14T21:34:19.003Z,102527.81
2023-02-14T21:36:48.097Z,102524.34
2023-02-14T21:39:16.829Z,102513.78
2023-02-14T21:41:44.723Z,102514.78
2023-02-14T21:44:32.731Z,102515.56
2023-02-14T21:47:00.935Z,102514.78
2023-02-14T21:49:47.352Z,102518.78
2023-02-14T21:52:15.200Z,102522.56
2023-02-14T21:54:43.606Z,102524.34
2023-02-14T21:57:11.131Z,102522.00
2023-02-14T21:59:40.510Z,102530.44
2023-02-14T22:02:09.018Z,102531.25
2023-02-14T22:04:36.659Z,102534.34
2023-02-14T22:07:04.712Z,102536.91
2023-02-14T22:09:33.153Z,102535.25
2023-02-14T22:12:01.316Z,102536.59
2023-02-14T22:14:29.347Z,102532.53
2023-02-14T22:16:57.812Z,102530.03
2023-02-14T22:19:26.557Z,102534.38
2023-02-14T22:21:54.351Z,102529.13
2023-02-14T22:24:22.569Z,102531.34
2023-02-14T22:26:50.865Z,102538.63
2023-02-14T22:29:19.678Z,102543.47
2023-02-14T22:31:48.220Z,102542.47
2023-02-14T22:34:19.593Z,102542.13
2023-02-14T22:36:47.263Z,102537.00
2023-02-14T22:39:16.064Z,102541.38
2023-02-14T22:41:44.200Z,102547.69
2023-02-14T22:44:17.211Z,102548.50
2023-02-14T22:46:48.563Z,102551.06
2023-02-14T22:49:17.524Z,102548.97
2023-02-14T22:51:44.655Z,102555.25
2023-02-14T22:54:13.782Z,102552.19
2023-02-14T22:56:48.113Z,102550.94
2023-02-14T22:59:18.505Z,102552.03
2023-02-14T23:01:46.436Z,102553.59
2023-02-14T23:04:14.276Z,102553.13
2023-02-14T23:06:42.013Z,102554.88
2023-02-14T23:09:10.203Z,102554.63
2023-02-14T23:11:37.920Z,102558.72
2023-02-14T23:14:24.252Z,102564.06
2023-02-14T23:17:10.250Z,102559.47
2023-02-14T23:19:58.636Z,102563.31
2023-02-14T23:22:38.002Z,102560.19
2023-02-14T23:25:10.710Z,102563.28
2023-02-14T23:27:47.659Z,102558.81
2023-02-14T23:30:18.437Z,102551.81
2023-02-14T23:32:46.833Z,102553.47
2023-02-14T23:35:16.170Z,102555.63
2023-02-14T23:37:44.736Z,102548.47
2023-02-14T23:40:13.720Z,102547.75
2023-02-14T23:42:42.120Z,102550.78
2023-02-14T23:45:28.436Z,102543.38
2023-02-14T23:47:56.528Z,102535.72
2023-02-14T23:50:25.187Z,102535.34
2023-02-14T23:52:53.234Z,102527.56
2023-02-14T23:55:21.260Z,102525.03
2023-02-14T23:57:49.523Z,102531.13
